Portada
METAR-TAF:

METAR-TAF

Aeropuertos :

Aeropuerto Internacional de Dusambé

Dusambé, Tayikistán

latitud: 38-33N, longitud: 068-47E, altitud: 803 m

Observación

El informe se hizo hace 10 minutos, a las 00:30 UTC
Viento 6 kt del noreste
Temperatura 6°C
Humedad 52%
Presión 1023 hPa
Visibilidad 10 km o más

METAR: UTDD 170030Z 05003MPS 9999 NSC 06/M03 Q1023 R09/D NOSIG RMK QFE698/0931

Hora: 05:40 (00:40 UTC)

Pronóstico

El informe se hizo hace 3 horas y 40 minutos, a las 21:00 UTC
Pronóstico válido del 16 a las 22 UTC al 17 a las 10 UTC
Viento 4 kt con dirección variable
Visibilidad: 3100 m
Escasas nubes a una altura de 6600 ft, Cumulonimbus.
Nubes dispersas a una altura de 12000 ft
neblina, humo

TAF: UTDD 162100Z 1622/1710 VRB02MPS 3100 BR FU FEW066CB SCT120

Observaciones y pronósticos meteorológicos de más de 4000 aeropuertos (mensajes METAR y TAF).

Los puntos amarillos y rojos representan las estaciones disponibles.

Ponga el ratón en el punto deseado para ver el nombre de la estación.

Haga clic para ver las observaciones y los pronósticos meteorológicos.

Para cambiar el mapa : haga clic en los botones verdes con una cruz de color negro para hacer un zoom, en el botón verde con un guión para alejar o en las flechas verdes para mapas adyacentes.


METAR-TAF: